createdAt,value
2022-11-16T00:02:57.512Z,6.51
2022-11-16T00:06:02.218Z,6.50
2022-11-16T00:09:23.116Z,6.48
2022-11-16T00:12:25.344Z,6.50
2022-11-16T00:15:27.983Z,6.53
2022-11-16T00:18:31.107Z,6.55
2022-11-16T00:21:34.039Z,6.55
2022-11-16T00:24:36.294Z,6.54
2022-11-16T00:27:38.499Z,6.57
2022-11-16T00:30:40.972Z,6.58
2022-11-16T00:33:43.186Z,6.61
2022-11-16T00:36:45.695Z,6.60
2022-11-16T00:39:47.921Z,6.60
2022-11-16T00:42:50.213Z,6.57
2022-11-16T00:45:52.619Z,6.56
2022-11-16T00:48:54.869Z,6.59
2022-11-16T00:51:57.097Z,6.63
2022-11-16T00:54:59.312Z,6.66
2022-11-16T00:58:01.552Z,6.71
2022-11-16T01:01:08.524Z,6.75
2022-11-16T01:04:10.978Z,6.80
2022-11-16T01:07:13.166Z,6.79
2022-11-16T01:10:21.424Z,6.81
2022-11-16T01:13:23.569Z,6.79
2022-11-16T01:16:25.889Z,6.79
2022-11-16T01:19:28.354Z,6.80
2022-11-16T01:22:30.693Z,6.80
2022-11-16T01:25:33.167Z,6.81
2022-11-16T01:28:35.858Z,6.82
2022-11-16T01:34:57.719Z,6.78
2022-11-16T01:38:00.043Z,6.78
2022-11-16T01:41:02.284Z,6.74
2022-11-16T01:44:33.361Z,6.68
2022-11-16T01:47:35.621Z,6.58
2022-11-16T01:50:39.189Z,6.49
2022-11-16T01:53:41.822Z,6.46
2022-11-16T01:56:47.811Z,6.43
2022-11-16T01:59:54.134Z,6.40
2022-11-16T02:02:56.607Z,6.36
2022-11-16T02:06:26.939Z,6.34
2022-11-16T02:09:59.612Z,6.31
2022-11-16T02:13:04.860Z,6.28
2022-11-16T02:16:25.737Z,6.34
2022-11-16T02:19:55.625Z,6.41
2022-11-16T02:23:34.288Z,6.43
2022-11-16T02:26:39.208Z,6.43
2022-11-16T02:29:52.498Z,6.43
2022-11-16T02:33:18.147Z,6.40
2022-11-16T02:36:24.262Z,6.38
2022-11-16T02:39:30.183Z,6.28
2022-11-16T02:42:41.618Z,6.36
2022-11-16T02:45:48.356Z,6.31
2022-11-16T02:48:55.261Z,6.37
2022-11-16T02:51:59.171Z,6.40
2022-11-16T02:55:01.510Z,6.43
2022-11-16T02:58:11.577Z,6.48
2022-11-16T03:01:23.977Z,6.52
2022-11-16T03:04:38.060Z,6.50
2022-11-16T03:07:48.215Z,6.56
2022-11-16T03:11:14.199Z,6.60
2022-11-16T03:14:20.796Z,6.58
2022-11-16T03:17:30.316Z,6.55
2022-11-16T03:20:35.709Z,6.54
2022-11-16T03:23:38.209Z,6.53
2022-11-16T03:27:07.364Z,6.51
2022-11-16T03:30:18.986Z,6.47
2022-11-16T03:33:29.428Z,6.45
2022-11-16T03:36:35.222Z,6.44
2022-11-16T03:39:39.867Z,6.42
2022-11-16T03:42:43.148Z,6.40
2022-11-16T03:45:47.005Z,6.35
2022-11-16T03:48:49.221Z,6.27
2022-11-16T03:51:52.144Z,6.21
2022-11-16T03:54:54.338Z,6.17
2022-11-16T03:57:56.656Z,6.11
2022-11-16T04:00:59.401Z,6.09
2022-11-16T04:04:01.706Z,6.00
2022-11-16T04:07:22.496Z,5.96
2022-11-16T04:10:43.833Z,5.92
2022-11-16T04:14:09.074Z,5.86
2022-11-16T04:17:35.146Z,5.81
2022-11-16T04:20:56.507Z,5.82
2022-11-16T04:24:13.868Z,5.84
2022-11-16T04:27:35.369Z,5.87
2022-11-16T04:30:56.167Z,5.86
2022-11-16T04:34:16.864Z,5.88
2022-11-16T04:37:38.219Z,5.93
2022-11-16T04:40:40.623Z,5.92
2022-11-16T04:43:42.822Z,5.90
2022-11-16T04:47:04.133Z,5.95
2022-11-16T04:50:06.731Z,5.90
2022-11-16T04:53:09.425Z,5.91
2022-11-16T04:56:12.668Z,5.88
2022-11-16T04:59:15.165Z,5.81
2022-11-16T05:02:17.380Z,5.77
2022-11-16T05:05:20.187Z,5.74
2022-11-16T05:08:22.395Z,5.71
2022-11-16T05:11:24.676Z,5.66
2022-11-16T05:14:27.083Z,5.64
2022-11-16T05:17:29.878Z,5.58
2022-11-16T05:20:50.924Z,5.53
2022-11-16T05:24:11.727Z,5.53
2022-11-16T05:27:17.255Z,5.54
2022-11-16T05:30:20.049Z,5.57
2022-11-16T05:33:22.298Z,5.56
2022-11-16T05:36:24.655Z,5.63
2022-11-16T05:39:26.993Z,5.65
2022-11-16T05:42:29.272Z,5.68
2022-11-16T05:45:31.579Z,5.68
2022-11-16T05:48:33.988Z,5.69
2022-11-16T05:51:38.347Z,5.69
2022-11-16T05:54:40.603Z,5.68
2022-11-16T05:57:43.140Z,5.68
2022-11-16T06:00:48.547Z,5.68
2022-11-16T06:03:51.361Z,5.67
2022-11-16T06:06:53.812Z,5.65
2022-11-16T06:09:56.129Z,5.64
2022-11-16T06:12:58.368Z,5.65
2022-11-16T06:16:01.362Z,5.63
2022-11-16T06:19:03.591Z,5.67
2022-11-16T06:22:05.867Z,5.69
2022-11-16T06:25:08.675Z,5.72
2022-11-16T06:28:11.184Z,5.75
2022-11-16T06:31:13.723Z,5.78
2022-11-16T06:34:16.275Z,5.85
2022-11-16T06:37:19.125Z,5.87
2022-11-16T06:40:21.622Z,5.94
2022-11-16T06:43:27.336Z,5.97
2022-11-16T06:46:29.485Z,6.04
2022-11-16T06:49:32.402Z,6.07
2022-11-16T06:52:34.720Z,6.10
2022-11-16T06:55:37.020Z,6.15
2022-11-16T06:58:41.692Z,6.17
2022-11-16T07:01:45.270Z,6.19
2022-11-16T07:04:47.591Z,6.22
2022-11-16T07:07:54.602Z,6.27
2022-11-16T07:11:01.520Z,6.36
2022-11-16T07:14:06.196Z,6.46
2022-11-16T07:17:09.813Z,6.51
2022-11-16T07:20:12.313Z,6.65
2022-11-16T07:23:14.549Z,6.74
2022-11-16T07:26:16.827Z,6.83
2022-11-16T07:29:19.676Z,6.90
2022-11-16T07:32:22.394Z,6.96
2022-11-16T07:35:25.175Z,7.06
2022-11-16T07:38:27.361Z,7.17
2022-11-16T07:41:29.607Z,7.27
2022-11-16T07:44:31.789Z,7.34
2022-11-16T07:47:38.139Z,7.46
2022-11-16T07:50:40.397Z,7.48
2022-11-16T07:53:43.911Z,7.61
2022-11-16T07:56:46.120Z,7.67
2022-11-16T07:59:48.363Z,7.71
2022-11-16T08:02:50.979Z,7.75
2022-11-16T08:06:08.624Z,7.83
2022-11-16T08:09:11.012Z,7.90
2022-11-16T08:12:13.672Z,7.89
2022-11-16T08:15:16.078Z,7.87
2022-11-16T08:18:19.693Z,7.81
2022-11-16T08:21:21.917Z,7.75
2022-11-16T08:24:24.192Z,7.81
2022-11-16T08:27:26.464Z,7.80
2022-11-16T08:30:28.724Z,7.82
2022-11-16T08:33:31.032Z,7.84
2022-11-16T08:36:33.311Z,7.90
2022-11-16T08:39:35.570Z,7.93
2022-11-16T08:42:43.254Z,8.00
2022-11-16T08:45:49.761Z,8.02
2022-11-16T08:48:56.729Z,8.06
2022-11-16T08:51:58.945Z,8.03
2022-11-16T08:55:01.169Z,7.98
2022-11-16T08:58:03.657Z,7.93
2022-11-16T09:01:14.677Z,8.02
2022-11-16T09:04:18.927Z,8.13
2022-11-16T09:07:21.988Z,8.19
2022-11-16T09:10:26.166Z,8.29
2022-11-16T09:13:28.732Z,8.42
2022-11-16T09:16:30.897Z,8.58
2022-11-16T09:19:35.134Z,8.66
2022-11-16T09:22:37.343Z,8.69
2022-11-16T09:25:39.595Z,8.58
2022-11-16T09:28:41.917Z,8.60
2022-11-16T09:31:44.212Z,8.62
2022-11-16T09:34:46.448Z,8.61
2022-11-16T09:37:48.679Z,8.56
2022-11-16T09:40:50.935Z,8.56
2022-11-16T09:44:10.882Z,8.45
2022-11-16T09:47:22.590Z,8.43
2022-11-16T09:50:33.937Z,8.42
2022-11-16T09:53:45.510Z,8.38
2022-11-16T09:56:51.794Z,8.35
2022-11-16T10:00:00.901Z,8.31
2022-11-16T10:03:06.910Z,8.18
2022-11-16T10:06:21.458Z,8.16
2022-11-16T10:09:24.458Z,8.06
2022-11-16T10:12:44.224Z,7.92
2022-11-16T10:16:00.573Z,8.08
2022-11-16T10:19:21.813Z,8.07
2022-11-16T10:22:59.062Z,8.11
2022-11-16T10:26:25.658Z,8.09
2022-11-16T10:30:05.306Z,8.12
2022-11-16T10:33:13.405Z,8.10
2022-11-16T10:36:16.788Z,8.13
2022-11-16T10:39:20.768Z,8.19
2022-11-16T10:42:31.422Z,8.21
2022-11-16T10:45:40.366Z,8.23
2022-11-16T10:49:11.725Z,8.29
2022-11-16T10:52:13.993Z,8.35
2022-11-16T10:55:16.808Z,8.38
2022-11-16T10:58:19.066Z,8.44
2022-11-16T11:01:29.076Z,8.47
2022-11-16T11:04:32.880Z,8.48
2022-11-16T11:07:40.287Z,8.27
2022-11-16T11:10:43.015Z,8.23
2022-11-16T11:13:45.265Z,8.24
2022-11-16T11:16:53.162Z,8.26
2022-11-16T11:20:15.508Z,8.25
2022-11-16T11:23:24.141Z,8.22
2022-11-16T11:26:37.122Z,8.23
2022-11-16T11:29:43.349Z,8.12
2022-11-16T11:32:46.789Z,8.12
2022-11-16T11:36:02.317Z,8.09
2022-11-16T11:39:13.835Z,8.11
2022-11-16T11:42:15.889Z,8.08
2022-11-16T11:45:20.054Z,8.13
2022-11-16T11:48:34.097Z,8.03
2022-11-16T11:51:42.418Z,8.04
2022-11-16T11:54:49.573Z,8.10
2022-11-16T11:57:53.976Z,8.01
2022-11-16T12:01:25.775Z,7.98
2022-11-16T12:04:43.649Z,7.95
2022-11-16T12:07:48.591Z,7.85
2022-11-16T12:11:29.504Z,7.91
2022-11-16T12:15:17.146Z,7.82
2022-11-16T12:18:54.904Z,7.80
2022-11-16T12:22:37.662Z,7.84
2022-11-16T12:26:00.007Z,7.84
2022-11-16T12:29:34.538Z,7.88
2022-11-16T12:33:04.659Z,7.84
2022-11-16T12:36:24.950Z,7.85
2022-11-16T12:39:56.065Z,7.87
2022-11-16T12:43:17.808Z,7.91
2022-11-16T12:46:35.093Z,7.87
2022-11-16T12:49:58.506Z,7.92
2022-11-16T12:53:35.293Z,7.94
2022-11-16T12:56:49.149Z,7.88
2022-11-16T13:00:12.263Z,7.91
2022-11-16T13:03:31.649Z,7.85
2022-11-16T13:06:44.151Z,7.91
2022-11-16T13:09:51.654Z,7.93
2022-11-16T13:13:29.666Z,7.92
2022-11-16T13:16:25.645Z,7.90
2022-11-16T13:19:28.408Z,8.00
2022-11-16T13:22:33.878Z,8.03
2022-11-16T13:25:40.870Z,8.04
2022-11-16T13:29:00.447Z,8.06
2022-11-16T13:32:14.517Z,8.05
2022-11-16T13:35:18.722Z,8.00
2022-11-16T13:38:51.111Z,7.90
2022-11-16T13:42:12.041Z,7.86
2022-11-16T13:45:20.945Z,7.85
2022-11-16T13:48:33.852Z,7.85
2022-11-16T13:51:36.380Z,7.83
2022-11-16T13:54:47.078Z,7.83
2022-11-16T13:57:53.105Z,7.78
2022-11-16T14:01:09.063Z,7.80
2022-11-16T14:07:50.826Z,7.84
2022-11-16T14:10:53.167Z,7.85
2022-11-16T14:13:55.561Z,7.85
2022-11-16T14:16:57.798Z,7.85
2022-11-16T14:20:00.351Z,7.85
2022-11-16T14:23:39.835Z,7.89
2022-11-16T14:27:00.237Z,7.90
2022-11-16T14:30:33.115Z,7.90
2022-11-16T14:33:37.128Z,7.92
2022-11-16T14:36:43.339Z,7.93
2022-11-16T14:39:46.048Z,7.91
2022-11-16T14:46:35.906Z,7.89
2022-11-16T14:49:47.269Z,7.91
2022-11-16T14:52:52.781Z,7.92
2022-11-16T14:56:08.079Z,7.92
2022-11-16T14:59:17.023Z,7.93
2022-11-16T15:02:27.600Z,7.92
2022-11-16T15:05:34.633Z,7.91
2022-11-16T15:08:51.942Z,7.89
2022-11-16T15:12:14.028Z,7.91
2022-11-16T15:15:19.534Z,7.89
2022-11-16T15:18:23.418Z,7.89
2022-11-16T15:21:25.873Z,7.88
2022-11-16T15:24:35.376Z,7.86
2022-11-16T15:27:40.917Z,7.88
2022-11-16T15:30:46.936Z,7.87
2022-11-16T15:33:50.551Z,7.86
2022-11-16T15:36:52.856Z,7.86
2022-11-16T15:39:56.591Z,7.84
2022-11-16T15:43:00.875Z,7.85
2022-11-16T15:46:04.969Z,7.83
2022-11-16T15:49:37.207Z,7.83
2022-11-16T15:52:54.833Z,7.81
2022-11-16T15:55:57.204Z,7.80
2022-11-16T15:59:09.583Z,7.80
2022-11-16T16:02:19.335Z,7.78
2022-11-16T16:05:37.155Z,7.77
2022-11-16T16:08:40.892Z,7.75
2022-11-16T16:11:43.360Z,7.75
2022-11-16T16:14:46.767Z,7.73
2022-11-16T16:17:49.800Z,7.72
2022-11-16T16:20:52.034Z,7.70
2022-11-16T16:23:56.241Z,7.69
2022-11-16T16:26:58.602Z,7.68
2022-11-16T16:30:05.582Z,7.69
2022-11-16T16:33:15.965Z,7.68
2022-11-16T16:36:18.189Z,7.67
2022-11-16T16:39:21.108Z,7.64
2022-11-16T16:42:23.460Z,7.66
2022-11-16T16:45:41.871Z,7.63
2022-11-16T16:48:44.897Z,7.61
2022-11-16T16:51:47.262Z,7.61
2022-11-16T16:54:49.892Z,7.59
2022-11-16T16:57:54.451Z,7.58
2022-11-16T17:01:01.166Z,7.56
2022-11-16T17:04:03.855Z,7.56
2022-11-16T17:07:08.939Z,7.53
2022-11-16T17:10:11.523Z,7.53
2022-11-16T17:13:14.156Z,7.48
2022-11-16T17:16:18.861Z,7.42
2022-11-16T17:19:21.708Z,7.42
2022-11-16T17:22:24.415Z,7.38
2022-11-16T17:25:27.294Z,7.30
2022-11-16T17:28:30.117Z,7.26
2022-11-16T17:31:32.570Z,7.23
2022-11-16T17:34:35.000Z,7.26
2022-11-16T17:37:37.758Z,7.23
2022-11-16T17:40:40.728Z,7.21
2022-11-16T17:43:44.694Z,7.20
2022-11-16T17:46:47.840Z,7.18
2022-11-16T17:49:50.418Z,7.18
2022-11-16T17:52:52.972Z,7.17
2022-11-16T17:55:58.820Z,7.16
2022-11-16T17:59:14.369Z,7.15
2022-11-16T18:02:16.959Z,7.16
2022-11-16T18:05:19.887Z,7.18
2022-11-16T18:08:22.620Z,7.21
2022-11-16T18:11:30.185Z,7.20
2022-11-16T18:14:32.787Z,7.22
2022-11-16T18:17:36.890Z,7.28
2022-11-16T18:20:39.822Z,7.35
2022-11-16T18:23:42.917Z,7.40
2022-11-16T18:26:45.564Z,7.43
2022-11-16T18:29:48.736Z,7.41
2022-11-16T18:32:51.700Z,7.43
2022-11-16T18:35:55.092Z,7.40
2022-11-16T18:38:57.835Z,7.41
2022-11-16T18:42:00.502Z,7.41
2022-11-16T18:45:05.617Z,7.36
2022-11-16T18:48:08.538Z,7.36
2022-11-16T18:51:11.888Z,7.38
2022-11-16T18:54:14.228Z,7.36
2022-11-16T19:00:58.517Z,7.29
2022-11-16T19:04:01.380Z,7.22
2022-11-16T19:07:04.237Z,7.23
2022-11-16T19:10:07.665Z,7.19
2022-11-16T19:13:10.300Z,7.14
2022-11-16T19:16:14.313Z,7.11
2022-11-16T19:19:17.058Z,7.03
2022-11-16T19:22:20.328Z,6.94
2022-11-16T19:25:25.895Z,6.93
2022-11-16T19:28:28.538Z,6.88
2022-11-16T19:31:33.212Z,6.88
2022-11-16T19:34:36.391Z,6.83
2022-11-16T19:37:39.341Z,6.78
2022-11-16T19:40:44.838Z,6.79
2022-11-16T19:43:50.751Z,6.78
2022-11-16T19:46:55.081Z,6.74
2022-11-16T19:49:57.823Z,6.71
2022-11-16T19:53:00.477Z,6.64
2022-11-16T19:56:03.744Z,6.58
2022-11-16T19:59:06.432Z,6.50
2022-11-16T20:02:10.836Z,6.45
2022-11-16T20:05:19.569Z,6.39
2022-11-16T20:08:22.592Z,6.35
2022-11-16T20:11:34.616Z,6.33
2022-11-16T20:14:37.377Z,6.37
2022-11-16T20:17:40.222Z,6.27
2022-11-16T20:20:42.781Z,6.29
2022-11-16T20:23:46.210Z,6.27
2022-11-16T20:26:49.969Z,6.24
2022-11-16T20:29:52.947Z,6.21
2022-11-16T20:32:55.771Z,6.16
2022-11-16T20:36:03.301Z,6.15
2022-11-16T20:39:06.153Z,6.19
2022-11-16T20:42:09.108Z,6.16
2022-11-16T20:45:12.813Z,6.14
2022-11-16T20:48:16.030Z,6.11
2022-11-16T20:51:20.077Z,6.10
2022-11-16T20:54:24.954Z,6.11
2022-11-16T20:57:27.395Z,6.10
2022-11-16T21:00:31.092Z,6.11
2022-11-16T21:03:34.385Z,6.15
2022-11-16T21:06:37.047Z,6.18
2022-11-16T21:09:59.312Z,6.22
2022-11-16T21:13:20.645Z,6.24
2022-11-16T21:16:23.310Z,6.25
2022-11-16T21:19:25.807Z,6.23
2022-11-16T21:22:32.116Z,6.25
2022-11-16T21:25:35.194Z,6.22
2022-11-16T21:28:39.070Z,6.25
2022-11-16T21:31:41.446Z,6.26
2022-11-16T21:34:43.673Z,6.26
2022-11-16T21:37:45.998Z,6.28
2022-11-16T21:40:48.564Z,6.26
2022-11-16T21:43:51.306Z,6.27
2022-11-16T21:46:54.246Z,6.27
2022-11-16T21:50:29.587Z,6.29
2022-11-16T21:53:18.727Z,6.31
2022-11-16T21:56:25.106Z,6.31
2022-11-16T21:59:27.294Z,6.30
2022-11-16T22:02:29.621Z,6.29
2022-11-16T22:05:50.319Z,6.28
2022-11-16T22:08:53.063Z,6.24
2022-11-16T22:11:55.324Z,6.22
2022-11-16T22:14:58.649Z,6.23
2022-11-16T22:18:01.982Z,6.22
2022-11-16T22:21:05.405Z,6.22
2022-11-16T22:24:07.963Z,6.21
2022-11-16T22:27:10.281Z,6.19
2022-11-16T22:30:12.752Z,6.22
2022-11-16T22:33:19.741Z,6.19
2022-11-16T22:36:22.353Z,6.20
2022-11-16T22:39:24.694Z,6.20
2022-11-16T22:42:27.034Z,6.22
2022-11-16T22:45:29.353Z,6.22
2022-11-16T22:48:39.842Z,6.25
2022-11-16T22:51:42.058Z,6.25
2022-11-16T22:54:44.361Z,6.25
2022-11-16T22:57:46.564Z,6.26
2022-11-16T23:00:48.808Z,6.27
2022-11-16T23:03:51.439Z,6.27
2022-11-16T23:06:53.686Z,6.25
2022-11-16T23:09:56.006Z,6.25
2022-11-16T23:13:16.794Z,6.24
2022-11-16T23:16:19.019Z,6.23
2022-11-16T23:19:40.876Z,6.21
2022-11-16T23:23:01.600Z,6.22
2022-11-16T23:26:28.471Z,6.22
2022-11-16T23:29:30.656Z,6.20
2022-11-16T23:32:32.889Z,6.20
2022-11-16T23:35:35.159Z,6.21
2022-11-16T23:38:37.342Z,6.20
2022-11-16T23:41:58.274Z,6.19
2022-11-16T23:45:00.598Z,6.19
2022-11-16T23:48:02.829Z,6.19
2022-11-16T23:51:05.109Z,6.17
2022-11-16T23:54:07.673Z,6.17
2022-11-16T23:57:10.085Z,6.12
